createdAt,value
2016-06-25T00:00:58.379Z,84.63
2016-06-25T00:01:57.744Z,84.25
2016-06-25T00:02:58.363Z,84
2016-06-25T00:03:57.698Z,84.39
2016-06-25T00:04:58.322Z,84.44
2016-06-25T00:05:58.311Z,84.16
2016-06-25T00:06:58.293Z,84.73
2016-06-25T00:07:57.641Z,84.83
2016-06-25T00:08:58.265Z,84.34
2016-06-25T00:09:58.249Z,84.63
2016-06-25T00:10:58.257Z,84.34
2016-06-25T00:11:57.575Z,84.63
2016-06-25T00:12:57.569Z,84.44
2016-06-25T00:13:57.547Z,84.83
2016-06-25T00:14:58.179Z,84.63
2016-06-25T00:15:58.188Z,84.63
2016-06-25T00:16:58.151Z,84.73
2016-06-25T00:17:58.136Z,84.44
2016-06-25T00:18:58.116Z,84.44
2016-06-25T00:19:58.102Z,84.25
2016-06-25T00:20:58.094Z,84.73
2016-06-25T00:21:57.433Z,84.44
2016-06-25T00:22:57.416Z,84.34
2016-06-25T00:23:57.409Z,84.83
2016-06-25T00:24:58.031Z,85.6
2016-06-25T00:25:58.010Z,85.78
2016-06-25T00:26:57.995Z,85.6
2016-06-25T00:27:57.983Z,85.6
2016-06-25T00:28:57.979Z,85.6
2016-06-25T00:29:57.961Z,85.4
2016-06-25T00:30:57.936Z,85.02
2016-06-25T00:31:57.929Z,85.5
2016-06-25T00:32:57.292Z,85.21
2016-06-25T00:33:57.911Z,85.11
2016-06-25T00:34:57.877Z,86.08
2016-06-25T00:35:57.871Z,85.88
2016-06-25T00:36:57.215Z,85.6
2016-06-25T00:37:57.837Z,86.08
2016-06-25T00:38:57.824Z,85.5
2016-06-25T00:39:57.802Z,85.31
2016-06-25T00:40:57.785Z,85.88
2016-06-25T00:41:57.795Z,85.4
2016-06-25T00:42:57.766Z,85.69
2016-06-25T00:43:57.101Z,85.5
2016-06-25T00:44:57.776Z,85.31
2016-06-25T00:45:57.722Z,85.6
2016-06-25T00:46:57.706Z,86.46
2016-06-25T00:47:57.681Z,86.13
2016-06-25T00:48:57.669Z,86.42
2016-06-25T00:49:57.666Z,85.6
2016-06-25T00:50:57.635Z,85.98
2016-06-25T00:51:57.630Z,85.88
2016-06-25T00:52:57.616Z,86.04
2016-06-25T00:53:57.605Z,85.46
2016-06-25T00:54:57.586Z,85.5
2016-06-25T00:55:57.573Z,85.55
2016-06-25T00:56:56.923Z,85.27
2016-06-25T00:57:56.905Z,85.5
2016-06-25T00:58:57.534Z,85.65
2016-06-25T00:59:57.522Z,85.65
2016-06-25T01:00:57.547Z,85.75
2016-06-25T01:01:57.486Z,85.65
2016-06-25T01:02:57.490Z,85.75
2016-06-25T01:03:57.450Z,84.88
2016-06-25T01:04:57.438Z,85.17
2016-06-25T01:05:57.423Z,85.4
2016-06-25T01:06:56.766Z,85.46
2016-06-25T01:07:57.396Z,85.07
2016-06-25T01:08:57.371Z,85.94
2016-06-25T01:09:57.367Z,86.04
2016-06-25T01:10:57.344Z,85.46
2016-06-25T01:11:57.359Z,85.55
2016-06-25T01:12:57.313Z,85.75
2016-06-25T01:13:57.308Z,85.36
2016-06-25T01:14:56.647Z,85.07
2016-06-25T01:15:57.271Z,85.07
2016-06-25T01:16:57.253Z,85.02
2016-06-25T01:17:57.245Z,85.11
2016-06-25T01:18:57.229Z,85.65
2016-06-25T01:19:57.231Z,85.55
2016-06-25T01:20:57.215Z,86.61
2016-06-25T01:21:57.178Z,86.42
2016-06-25T01:22:57.194Z,85.55
2016-06-25T01:23:57.148Z,85.36
2016-06-25T01:24:57.129Z,85.84
2016-06-25T01:25:57.128Z,85.75
2016-06-25T01:26:57.117Z,85.75
2016-06-25T01:27:56.457Z,86.04
2016-06-25T01:28:57.081Z,85.65
2016-06-25T01:29:57.068Z,85.46
2016-06-25T01:30:57.047Z,84.98
2016-06-25T01:31:57.035Z,85.27
2016-06-25T01:32:57.018Z,85.36
2016-06-25T01:33:56.378Z,85.4
2016-06-25T01:34:57.009Z,85.31
2016-06-25T01:35:56.970Z,85.31
2016-06-25T01:36:56.963Z,85.46
2016-06-25T01:37:56.301Z,85.65
2016-06-25T01:38:56.931Z,85.75
2016-06-25T01:39:56.919Z,85.75
2016-06-25T01:40:56.898Z,85.55
2016-06-25T01:41:56.251Z,85.17
2016-06-25T01:42:56.872Z,85.11
2016-06-25T01:43:56.216Z,85.11
2016-06-25T01:44:56.831Z,85.17
2016-06-25T01:45:56.826Z,85.55
2016-06-25T01:46:56.171Z,85.84
2016-06-25T01:47:56.161Z,85.46
2016-06-25T01:48:56.137Z,85.46
2016-06-25T01:49:56.763Z,85.75
2016-06-25T01:50:56.111Z,85.94
2016-06-25T01:51:56.093Z,85.55
2016-06-25T01:52:56.727Z,85.36
2016-06-25T01:53:56.694Z,85.27
2016-06-25T01:54:56.693Z,84.98
2016-06-25T01:55:56.670Z,85.02
2016-06-25T01:56:56.016Z,85.6
2016-06-25T01:57:56.651Z,85.75
2016-06-25T01:58:56.656Z,85.36
2016-06-25T01:59:56.614Z,85.31
2016-06-25T02:00:56.612Z,85.46
2016-06-25T02:01:56.579Z,85.07
2016-06-25T02:02:56.574Z,84.88
2016-06-25T02:03:56.558Z,85.4
2016-06-25T02:04:56.553Z,85.31
2016-06-25T02:05:56.517Z,85.11
2016-06-25T02:06:56.541Z,85.11
2016-06-25T02:07:56.528Z,85.75
2016-06-25T02:08:56.488Z,85.55
2016-06-25T02:09:56.462Z,85.46
2016-06-25T02:10:56.457Z,85.84
2016-06-25T02:11:55.805Z,85.46
2016-06-25T02:12:55.784Z,85.27
2016-06-25T02:13:56.414Z,84.88
2016-06-25T02:14:56.397Z,85.11
2016-06-25T02:15:55.736Z,85.31
2016-06-25T02:16:56.363Z,85.4
2016-06-25T02:17:55.711Z,85.27
2016-06-25T02:18:56.334Z,85.31
2016-06-25T02:19:56.323Z,85.4
2016-06-25T02:20:56.307Z,85.17
2016-06-25T02:21:56.309Z,85.07
2016-06-25T02:22:56.280Z,85.46
2016-06-25T02:23:55.616Z,85.65
2016-06-25T02:24:56.267Z,85.55
2016-06-25T02:25:55.591Z,85.55
2016-06-25T02:26:55.575Z,85.75
2016-06-25T02:27:56.201Z,85.75
2016-06-25T02:28:56.197Z,85.75
2016-06-25T02:29:55.540Z,85.94
2016-06-25T02:30:56.160Z,85.46
2016-06-25T02:31:55.503Z,85.55
2016-06-25T02:32:56.130Z,85.55
2016-06-25T02:33:56.124Z,85.94
2016-06-25T02:34:55.465Z,85.84
2016-06-25T02:35:56.074Z,85.65
2016-06-25T02:36:56.077Z,85.36
2016-06-25T02:37:56.067Z,85.55
2016-06-25T02:38:56.042Z,85.46
2016-06-25T02:39:55.386Z,85.36
2016-06-25T02:40:55.372Z,85.46
2016-06-25T02:41:55.999Z,85.55
2016-06-25T02:42:55.980Z,86.22
2016-06-25T02:43:55.327Z,86.22
2016-06-25T02:44:55.947Z,85.94
2016-06-25T02:45:55.928Z,85.65
2016-06-25T02:46:55.948Z,85.65
2016-06-25T02:47:55.901Z,85.55
2016-06-25T02:48:55.886Z,85.55
2016-06-25T02:49:55.240Z,86.42
2016-06-25T02:50:55.852Z,86.22
2016-06-25T02:51:55.846Z,86.42
2016-06-25T02:52:55.191Z,86.22
2016-06-25T02:53:55.847Z,85.55
2016-06-25T02:54:55.787Z,85.65
2016-06-25T02:55:55.794Z,85.65
2016-06-25T02:56:55.765Z,86.32
2016-06-25T02:57:55.757Z,85.55
2016-06-25T02:58:55.734Z,85.65
2016-06-25T02:59:55.724Z,85.36
2016-06-25T03:00:55.702Z,84.78
2016-06-25T03:01:55.702Z,85.17
2016-06-25T03:02:55.038Z,85.27
2016-06-25T03:03:55.668Z,85.17
2016-06-25T03:04:55.653Z,84.98
2016-06-25T03:05:54.994Z,85.17
2016-06-25T03:06:55.630Z,85.11
2016-06-25T03:07:55.607Z,84.83
2016-06-25T03:08:55.583Z,84.4
2016-06-25T03:09:55.582Z,84.98
2016-06-25T03:10:55.568Z,84.88
2016-06-25T03:11:55.541Z,85.46
2016-06-25T03:12:55.534Z,85.55
2016-06-25T03:13:55.508Z,85.75
2016-06-25T03:14:55.497Z,86.52
2016-06-25T03:15:55.487Z,86.42
2016-06-25T03:16:55.636Z,85.65
2016-06-25T03:17:55.617Z,85.84
2016-06-25T03:18:55.438Z,85.55
2016-06-25T03:19:54.784Z,86.13
2016-06-25T03:20:55.570Z,86.04
2016-06-25T03:21:54.770Z,86.8
2016-06-25T03:22:54.742Z,86.22
2016-06-25T03:23:55.358Z,86.32
2016-06-25T03:24:55.370Z,86.42
2016-06-25T03:25:55.342Z,86.42
2016-06-25T03:26:55.316Z,86.04
2016-06-25T03:27:55.303Z,85.55
2016-06-25T03:28:54.662Z,86.32
2016-06-25T03:29:54.631Z,86.52
2016-06-25T03:30:55.263Z,86.04
2016-06-25T03:31:55.252Z,85.27
2016-06-25T03:32:55.238Z,85.84
2016-06-25T03:33:54.583Z,85.75
2016-06-25T03:34:55.207Z,85.84
2016-06-25T03:35:55.179Z,85.46
2016-06-25T03:36:54.541Z,85.65
2016-06-25T03:37:55.162Z,85.65
2016-06-25T03:38:55.139Z,86.22
2016-06-25T03:39:55.139Z,86.13
2016-06-25T03:40:55.111Z,86.04
2016-06-25T03:41:55.095Z,85.55
2016-06-25T03:42:55.079Z,85.94
2016-06-25T03:43:55.063Z,86.22
2016-06-25T03:44:54.406Z,86.04
2016-06-25T03:45:55.040Z,86.22
2016-06-25T03:46:54.380Z,86.32
2016-06-25T03:47:54.363Z,86.04
2016-06-25T03:48:54.988Z,86.13
2016-06-25T03:49:54.978Z,86.9
2016-06-25T03:50:54.316Z,86.8
2016-06-25T03:51:54.938Z,86.13
2016-06-25T03:52:54.934Z,85.55
2016-06-25T03:53:54.911Z,86.13
2016-06-25T03:54:54.897Z,86.42
2016-06-25T03:55:54.238Z,86.04
2016-06-25T03:56:54.870Z,86.04
2016-06-25T03:57:54.852Z,86.22
2016-06-25T03:58:54.194Z,86.04
2016-06-25T03:59:54.821Z,86.32
2016-06-25T04:00:54.809Z,86.32
2016-06-25T04:01:54.794Z,86.42
2016-06-25T04:02:54.786Z,86.32
2016-06-25T04:03:54.777Z,87.05
2016-06-25T04:04:54.115Z,86.61
2016-06-25T04:05:54.099Z,86.8
2016-06-25T04:06:54.079Z,86.32
2016-06-25T04:07:54.071Z,86.9
2016-06-25T04:08:54.046Z,86.9
2016-06-25T04:09:54.675Z,86.32
2016-06-25T04:10:54.668Z,86.61
2016-06-25T04:11:54.664Z,87.43
2016-06-25T04:12:53.983Z,87.15
2016-06-25T04:13:53.977Z,87.05
2016-06-25T04:14:53.953Z,87.34
2016-06-25T04:15:54.590Z,86.47
2016-06-25T04:16:54.567Z,87.29
2016-06-25T04:17:54.565Z,86.76
2016-06-25T04:18:54.560Z,86.57
2016-06-25T04:19:53.890Z,86.71
2016-06-25T04:20:54.503Z,86.22
2016-06-25T04:21:54.498Z,86.61
2016-06-25T04:22:54.488Z,86.99
2016-06-25T04:23:53.824Z,86.61
2016-06-25T04:24:53.813Z,87.09
2016-06-25T04:25:54.452Z,86.99
2016-06-25T04:26:54.414Z,87.05
2016-06-25T04:27:54.421Z,86.71
2016-06-25T04:28:54.407Z,87.19
2016-06-25T04:29:53.752Z,86.99
2016-06-25T04:30:54.352Z,87.19
2016-06-25T04:31:53.708Z,86.9
2016-06-25T04:32:54.325Z,86.71
2016-06-25T04:33:53.678Z,86.22
2016-06-25T04:34:54.299Z,86.9
2016-06-25T04:35:53.639Z,87.29
2016-06-25T04:36:54.277Z,87.43
2016-06-25T04:37:54.248Z,86.9
2016-06-25T04:38:54.230Z,87.38
2016-06-25T04:39:53.588Z,87.19
2016-06-25T04:40:54.212Z,87.09
2016-06-25T04:41:54.196Z,87.38
2016-06-25T04:42:54.175Z,87.29
2016-06-25T04:43:54.174Z,87.09
2016-06-25T04:44:54.148Z,87.29
2016-06-25T04:45:54.129Z,86.99
2016-06-25T04:46:53.483Z,87.09
2016-06-25T04:47:53.462Z,88.06
2016-06-25T04:48:54.082Z,87.62
2016-06-25T04:49:54.116Z,87.57
2016-06-25T04:50:54.072Z,87.29
2016-06-25T04:51:54.070Z,87.29
2016-06-25T04:52:53.384Z,87.38
2016-06-25T04:53:54.026Z,87.57
2016-06-25T04:54:54.006Z,87.19
2016-06-25T04:55:53.990Z,87.38
2016-06-25T04:56:53.962Z,87.09
2016-06-25T04:57:53.962Z,87.09
2016-06-25T04:58:53.944Z,87.38
2016-06-25T04:59:53.934Z,87.29
2016-06-25T05:00:53.269Z,87.67
2016-06-25T05:01:53.890Z,87.19
2016-06-25T05:02:53.878Z,87.38
2016-06-25T05:03:53.873Z,87.09
2016-06-25T05:04:53.847Z,87.48
2016-06-25T05:05:53.841Z,87.19
2016-06-25T05:06:53.813Z,86.9
2016-06-25T05:07:53.795Z,86.99
2016-06-25T05:08:53.788Z,87.29
2016-06-25T05:09:53.782Z,87.96
2016-06-25T05:10:53.754Z,87.86
2016-06-25T05:11:53.745Z,88.06
2016-06-25T05:12:53.101Z,87.86
2016-06-25T05:13:53.706Z,87.86
2016-06-25T05:14:53.095Z,88.24
2016-06-25T05:15:53.680Z,87.67
2016-06-25T05:16:53.678Z,87.57
2016-06-25T05:17:53.667Z,87.86
2016-06-25T05:18:52.990Z,87.86
2016-06-25T05:19:52.985Z,87.67
2016-06-25T05:20:52.996Z,88.06
2016-06-25T05:21:53.593Z,88.06
2016-06-25T05:22:53.574Z,88.15
2016-06-25T05:23:53.566Z,87.48
2016-06-25T05:24:52.915Z,87.76
2016-06-25T05:25:53.528Z,88.34
2016-06-25T05:26:53.519Z,87.96
2016-06-25T05:27:53.509Z,88.15
2016-06-25T05:28:53.493Z,88.44
2016-06-25T05:29:52.838Z,87.76
2016-06-25T05:30:53.452Z,88.63
2016-06-25T05:31:53.443Z,88.15
2016-06-25T05:32:53.442Z,87.67
2016-06-25T05:33:53.409Z,87.57
2016-06-25T05:34:53.405Z,87.67
2016-06-25T05:35:53.383Z,87.19
2016-06-25T05:36:53.369Z,87.52
2016-06-25T05:37:53.351Z,87.09
2016-06-25T05:38:53.334Z,87.33
2016-06-25T05:39:53.323Z,87.57
2016-06-25T05:40:53.315Z,87.23
2016-06-25T05:41:53.301Z,87.19
2016-06-25T05:42:53.274Z,87.38
2016-06-25T05:43:53.263Z,87.29
2016-06-25T05:44:53.251Z,87.19
2016-06-25T05:45:53.230Z,87.57
2016-06-25T05:46:53.207Z,87.42
2016-06-25T05:47:53.215Z,87.29
2016-06-25T05:48:53.191Z,87.19
2016-06-25T05:49:53.166Z,87.48
2016-06-25T05:50:53.156Z,87.29
2016-06-25T05:51:53.141Z,87.23
2016-06-25T05:52:53.129Z,87.48
2016-06-25T05:53:53.117Z,87.04
2016-06-25T05:54:53.095Z,86.85
2016-06-25T05:55:53.081Z,86.75
2016-06-25T05:56:53.065Z,86.46
2016-06-25T05:57:53.047Z,86.08
2016-06-25T05:58:52.398Z,85.98
2016-06-25T05:59:53.031Z,86.08
2016-06-25T06:00:53.005Z,86.56
2016-06-25T06:01:52.355Z,86.27
2016-06-25T06:02:52.977Z,86.27
2016-06-25T06:03:52.327Z,86.36
2016-06-25T06:04:52.951Z,86.18
2016-06-25T06:05:52.934Z,86.46
2016-06-25T06:06:52.919Z,85.6
2016-06-25T06:07:52.270Z,85.78
2016-06-25T06:08:52.897Z,85.98
2016-06-25T06:09:52.898Z,85.6
2016-06-25T06:10:52.855Z,85.83
2016-06-25T06:11:52.203Z,85.6
2016-06-25T06:12:52.192Z,86.08
2016-06-25T06:13:52.820Z,86.08
2016-06-25T06:14:52.803Z,86.75
2016-06-25T06:15:52.786Z,85.98
2016-06-25T06:16:52.777Z,86.46
2016-06-25T06:17:52.117Z,85.78
2016-06-25T06:18:52.727Z,85.69
2016-06-25T06:19:52.087Z,86.27
2016-06-25T06:20:52.707Z,86.27
2016-06-25T06:21:52.702Z,85.69
2016-06-25T06:22:52.683Z,85.11
2016-06-25T06:23:52.676Z,85.78
2016-06-25T06:24:52.650Z,85.78
2016-06-25T06:25:52.652Z,85.88
2016-06-25T06:26:52.625Z,85.21
2016-06-25T06:27:52.602Z,85.5
2016-06-25T06:28:52.603Z,85.02
2016-06-25T06:29:51.938Z,85.78
2016-06-25T06:30:52.564Z,85.78
2016-06-25T06:31:52.544Z,85.78
2016-06-25T06:32:51.893Z,86.56
2016-06-25T06:33:52.524Z,86.56
2016-06-25T06:34:51.871Z,85.6
2016-06-25T06:35:52.491Z,86.46
2016-06-25T06:36:51.841Z,86.46
2016-06-25T06:37:52.453Z,85.78
2016-06-25T06:38:51.809Z,86.36
2016-06-25T06:39:52.424Z,86.36
2016-06-25T06:40:51.771Z,86.27
2016-06-25T06:41:52.401Z,85.69
2016-06-25T06:42:52.387Z,85.5
2016-06-25T06:43:52.369Z,85.4
2016-06-25T06:44:52.343Z,85.6
2016-06-25T06:45:52.339Z,86.27
2016-06-25T06:46:52.324Z,85.6
2016-06-25T06:47:51.667Z,85.5
2016-06-25T06:48:52.310Z,85.21
2016-06-25T06:49:52.285Z,85.11
2016-06-25T06:50:52.267Z,85.11
2016-06-25T06:51:51.621Z,84.44
2016-06-25T06:52:51.597Z,85.21
2016-06-25T06:53:52.229Z,85.31
2016-06-25T06:54:52.209Z,85.5
2016-06-25T06:55:52.194Z,85.4
2016-06-25T06:56:52.185Z,84.83
2016-06-25T06:57:52.181Z,84.73
2016-06-25T06:58:51.531Z,84.58
2016-06-25T06:59:52.130Z,84
2016-06-25T07:00:51.488Z,83.81
2016-06-25T07:01:52.099Z,82.85
2016-06-25T07:02:52.086Z,83.47
2016-06-25T07:03:52.093Z,84.39
2016-06-25T07:04:52.066Z,84.19
2016-06-25T07:05:52.052Z,84.39
2016-06-25T07:06:52.036Z,84.67
2016-06-25T07:07:52.018Z,84.58
2016-06-25T07:08:52.012Z,84.58
2016-06-25T07:09:51.344Z,84.29
2016-06-25T07:10:51.976Z,84.87
2016-06-25T07:11:51.973Z,84.67
2016-06-25T07:12:51.942Z,84
2016-06-25T07:13:51.928Z,83.72
2016-06-25T07:14:51.909Z,83.14
2016-06-25T07:15:51.900Z,83.75
2016-06-25T07:16:51.883Z,83.72
2016-06-25T07:17:51.872Z,84.77
2016-06-25T07:18:51.860Z,84.48
2016-06-25T07:19:51.844Z,84
2016-06-25T07:20:51.835Z,83.72
2016-06-25T07:21:51.811Z,83.81
2016-06-25T07:22:51.803Z,83.72
2016-06-25T07:23:51.145Z,83.52
2016-06-25T07:24:51.772Z,83.81
2016-06-25T07:25:51.757Z,83.81
2016-06-25T07:26:51.731Z,83.72
2016-06-25T07:27:51.083Z,83.81
2016-06-25T07:28:51.711Z,83.91
2016-06-25T07:29:51.690Z,83.81
2016-06-25T07:30:51.682Z,83.81
2016-06-25T07:31:51.027Z,83.91
2016-06-25T07:32:51.663Z,83.91
2016-06-25T07:33:51.651Z,83.52
2016-06-25T07:34:51.621Z,83.42
2016-06-25T07:35:51.619Z,83.42
2016-06-25T07:36:50.960Z,82.12
2016-06-25T07:37:51.599Z,82.31
2016-06-25T07:38:51.564Z,82.02
2016-06-25T07:39:51.548Z,82.5
2016-06-25T07:40:51.533Z,83.47
2016-06-25T07:41:50.882Z,83.23
2016-06-25T07:42:50.871Z,82.6
2016-06-25T07:43:51.503Z,82.7
2016-06-25T07:44:51.478Z,82.89
2016-06-25T07:45:51.463Z,82.79
2016-06-25T07:46:51.450Z,82.6
2016-06-25T07:47:51.435Z,82.98
2016-06-25T07:48:51.423Z,83.14
2016-06-25T07:49:51.415Z,83.33
2016-06-25T07:50:51.394Z,82.31
2016-06-25T07:51:51.379Z,82.6
2016-06-25T07:52:51.357Z,82.6
2016-06-25T07:53:51.342Z,82.21
2016-06-25T07:54:50.694Z,83.37
2016-06-25T07:55:50.672Z,83.08
2016-06-25T07:56:51.295Z,82.89
2016-06-25T07:57:50.651Z,82.6
2016-06-25T07:58:51.274Z,81.93
2016-06-25T07:59:50.612Z,81.73
2016-06-25T08:00:50.625Z,82.02
2016-06-25T08:01:51.246Z,82.12
2016-06-25T08:02:51.217Z,82.31
2016-06-25T08:03:51.214Z,81.83
2016-06-25T08:04:51.189Z,82.12
2016-06-25T08:05:50.557Z,81.73
2016-06-25T08:06:51.162Z,81.87
2016-06-25T08:07:51.152Z,82.12
2016-06-25T08:08:51.130Z,82.12
2016-06-25T08:09:51.128Z,81.73
2016-06-25T08:10:50.470Z,82.21
2016-06-25T08:11:51.089Z,82.12
2016-06-25T08:12:51.071Z,82.31
2016-06-25T08:13:51.061Z,82.02
2016-06-25T08:14:51.051Z,82.41
2016-06-25T08:15:51.034Z,81.83
2016-06-25T08:16:51.026Z,82.12
2016-06-25T08:17:50.361Z,81.93
2016-06-25T08:18:50.355Z,82.02
2016-06-25T08:19:50.993Z,81.93
2016-06-25T08:20:50.972Z,81.48
2016-06-25T08:21:50.950Z,81.77
2016-06-25T08:22:50.938Z,81.2
2016-06-25T08:23:50.962Z,81.29
2016-06-25T08:24:50.915Z,81.1
2016-06-25T08:25:50.251Z,80.62
2016-06-25T08:26:50.890Z,80.33
2016-06-25T08:27:50.902Z,80.91
2016-06-25T08:28:50.875Z,81.2
2016-06-25T08:29:50.831Z,81.01
2016-06-25T08:30:50.806Z,80.52
2016-06-25T08:31:50.797Z,79.94
2016-06-25T08:32:50.783Z,79.69
2016-06-25T08:33:50.776Z,79.69
2016-06-25T08:34:50.755Z,80.08
2016-06-25T08:35:50.733Z,80.43
2016-06-25T08:36:50.737Z,79.69
2016-06-25T08:37:50.722Z,79.79
2016-06-25T08:38:50.721Z,79.21
2016-06-25T08:39:50.695Z,79.41
2016-06-25T08:40:50.074Z,80.27
2016-06-25T08:41:50.023Z,79.69
2016-06-25T08:42:49.999Z,79.5
2016-06-25T08:43:50.630Z,79.89
2016-06-25T08:44:49.979Z,79.08
2016-06-25T08:45:50.110Z,79.31
2016-06-25T08:46:50.587Z,79.21
2016-06-25T08:47:50.578Z,79.31
2016-06-25T08:48:50.559Z,79.41
2016-06-25T08:49:50.560Z,79.21
2016-06-25T08:50:50.526Z,79.41
2016-06-25T08:51:50.514Z,79.21
2016-06-25T08:52:50.506Z,79.21
2016-06-25T08:53:49.853Z,79.02
2016-06-25T08:54:49.845Z,79.31
2016-06-25T08:55:50.473Z,79.02
2016-06-25T08:56:50.476Z,79.02
2016-06-25T08:57:50.427Z,79.02
2016-06-25T08:58:50.423Z,78.83
2016-06-25T08:59:49.768Z,78.63
2016-06-25T09:00:50.390Z,78.25
2016-06-25T09:01:50.376Z,77.96
2016-06-25T09:02:50.373Z,78
2016-06-25T09:03:50.345Z,79.02
2016-06-25T09:04:50.334Z,78.09
2016-06-25T09:05:50.321Z,78.96
2016-06-25T09:06:50.319Z,78.54
2016-06-25T09:07:49.655Z,78.06
2016-06-25T09:08:50.280Z,78
2016-06-25T09:09:49.619Z,79.21
2016-06-25T09:10:50.246Z,79.11
2016-06-25T09:11:49.604Z,78.25
2016-06-25T09:12:50.219Z,79.21
2016-06-25T09:13:50.206Z,79.21
2016-06-25T09:14:50.209Z,78.83
2016-06-25T09:15:49.546Z,79.11
2016-06-25T09:16:50.170Z,78.34
2016-06-25T09:17:50.153Z,78.34
2016-06-25T09:18:50.137Z,78.83
2016-06-25T09:19:50.133Z,78.92
2016-06-25T09:20:50.107Z,77.86
2016-06-25T09:21:50.095Z,78
2016-06-25T09:22:50.187Z,77.96
2016-06-25T09:23:49.475Z,78.15
2016-06-25T09:24:50.071Z,78
2016-06-25T09:25:50.082Z,78.15
2016-06-25T09:26:50.028Z,78
2016-06-25T09:27:50.011Z,77.51
2016-06-25T09:28:50.030Z,77.51
2016-06-25T09:29:49.986Z,77.03
2016-06-25T09:30:50.034Z,77.61
2016-06-25T09:31:49.958Z,77.26
2016-06-25T09:32:49.967Z,77.23
2016-06-25T09:33:49.958Z,76.78
2016-06-25T09:34:49.912Z,76.98
2016-06-25T09:35:49.898Z,76.75
2016-06-25T09:36:49.960Z,76.78
2016-06-25T09:37:49.877Z,77.36
2016-06-25T09:38:49.863Z,76.5
2016-06-25T09:39:49.846Z,76.88
2016-06-25T09:40:49.831Z,76.3
2016-06-25T09:41:49.823Z,76.2
2016-06-25T09:42:49.171Z,76.4
2016-06-25T09:43:49.804Z,76.2
2016-06-25T09:44:49.767Z,76.4
2016-06-25T09:45:49.777Z,75.43
2016-06-25T09:46:49.813Z,75.57
2016-06-25T09:47:49.756Z,75.72
2016-06-25T09:48:49.723Z,75.85
2016-06-25T09:49:49.699Z,75.09
2016-06-25T09:50:49.700Z,75.09
2016-06-25T09:51:49.716Z,75.47
2016-06-25T09:52:49.062Z,75.67
2016-06-25T09:53:49.652Z,76.3
2016-06-25T09:54:49.641Z,75.85
2016-06-25T09:55:49.004Z,75.37
2016-06-25T09:56:49.608Z,74.79
2016-06-25T09:57:48.969Z,75.76
2016-06-25T09:58:48.956Z,74.41
2016-06-25T09:59:49.561Z,74.99
2016-06-25T10:00:48.953Z,74.21
2016-06-25T10:01:49.546Z,74.51
2016-06-25T10:02:49.547Z,74.51
2016-06-25T10:03:49.519Z,75.27
2016-06-25T10:04:49.499Z,75.67
2016-06-25T10:05:49.504Z,75.09
2016-06-25T10:06:48.838Z,74.02
2016-06-25T10:07:49.463Z,74.6
2016-06-25T10:08:49.464Z,74.21
2016-06-25T10:09:49.899Z,74.31
2016-06-25T10:10:49.431Z,74.12
2016-06-25T10:11:49.409Z,73.35
2016-06-25T10:12:49.402Z,75.22
2016-06-25T10:13:48.743Z,74.31
2016-06-25T10:14:48.726Z,73.38
2016-06-25T10:15:49.359Z,73.38
2016-06-25T10:16:49.352Z,73.09
2016-06-25T10:17:49.329Z,72.16
2016-06-25T10:18:48.676Z,72.16
2016-06-25T10:19:49.305Z,72.26
2016-06-25T10:20:49.289Z,72.74
2016-06-25T10:21:49.269Z,72.06
2016-06-25T10:22:49.261Z,71.78
2016-06-25T10:23:50.148Z,71.58
2016-06-25T10:24:49.244Z,71.42
2016-06-25T10:25:49.226Z,71.62
2016-06-25T10:26:49.209Z,71.91
2016-06-25T10:27:49.198Z,71.52
2016-06-25T10:28:49.183Z,70.46
2016-06-25T10:29:49.174Z,71.52
2016-06-25T10:30:49.161Z,71.81
2016-06-25T10:31:49.158Z,70.94
2016-06-25T10:32:49.135Z,70.5
2016-06-25T10:33:48.473Z,69.43
2016-06-25T10:34:49.110Z,70.3
2016-06-25T10:35:49.105Z,69.72
2016-06-25T10:36:49.082Z,68.46
2016-06-25T10:37:48.435Z,68.01
2016-06-25T10:38:49.068Z,67.82
2016-06-25T10:39:49.061Z,67.95
2016-06-25T10:40:49.040Z,68.59
2016-06-25T10:41:49.024Z,70.3
2016-06-25T10:42:49.005Z,70.75
2016-06-25T10:43:48.981Z,70.75
2016-06-25T10:44:48.992Z,71.39
2016-06-25T10:45:48.961Z,70.9
2016-06-25T10:46:48.967Z,70.17
2016-06-25T10:47:48.943Z,69.3
2016-06-25T10:48:48.924Z,69.68
2016-06-25T10:49:48.919Z,69.68
2016-06-25T10:50:48.925Z,68.62
2016-06-25T10:51:48.900Z,67.72
2016-06-25T10:52:48.886Z,68.21
2016-06-25T10:53:48.872Z,68.46
2016-06-25T10:54:48.853Z,68.56
2016-06-25T10:55:48.845Z,67.69
2016-06-25T10:56:48.199Z,67.82
2016-06-25T10:57:48.815Z,66.56
2016-06-25T10:58:48.809Z,66.27
2016-06-25T10:59:48.784Z,66.5
2016-06-25T11:00:48.142Z,65.72
2016-06-25T11:01:48.760Z,65.34
2016-06-25T11:02:48.119Z,65.63
2016-06-25T11:03:48.106Z,65.95
2016-06-25T11:04:48.092Z,65.82
2016-06-25T11:05:48.722Z,66.02
2016-06-25T11:06:48.699Z,64.85
2016-06-25T11:07:48.695Z,64.79
2016-06-25T11:08:48.687Z,63.24
2016-06-25T11:09:48.674Z,62.79
2016-06-25T11:10:48.668Z,63.17
2016-06-25T11:11:48.647Z,62.3
2016-06-25T11:12:47.994Z,62.98
2016-06-25T11:13:48.622Z,63.46
2016-06-25T11:14:48.607Z,63.56
2016-06-25T11:15:48.607Z,63.56
2016-06-25T11:16:48.582Z,63.56
2016-06-25T11:17:47.929Z,62.37
2016-06-25T11:18:48.567Z,60.65
2016-06-25T11:19:48.594Z,60.58
2016-06-25T11:20:48.530Z,60.39
2016-06-25T11:21:47.894Z,60.68
2016-06-25T11:22:48.514Z,60.68
2016-06-25T11:23:48.497Z,60.32
2016-06-25T11:24:48.485Z,59.19
2016-06-25T11:25:48.483Z,60.48
2016-06-25T11:26:48.463Z,60.91
2016-06-25T11:27:48.450Z,60.32
2016-06-25T11:28:47.802Z,60.45
2016-06-25T11:29:48.445Z,61.13
2016-06-25T11:30:48.417Z,62.82
2016-06-25T11:31:48.400Z,62.72
2016-06-25T11:32:48.386Z,62.23
2016-06-25T11:33:48.380Z,63.01
2016-06-25T11:34:48.364Z,62.2
2016-06-25T11:35:48.357Z,62.04
2016-06-25T11:36:48.354Z,61.55
2016-06-25T11:37:48.322Z,62.13
2016-06-25T11:38:48.320Z,61.17
2016-06-25T11:39:48.321Z,59.64
2016-06-25T11:40:48.307Z,59.58
2016-06-25T11:41:48.304Z,59
2016-06-25T11:42:47.657Z,58.54
2016-06-25T11:43:48.304Z,59
2016-06-25T11:44:48.272Z,59.28
2016-06-25T11:45:48.265Z,58.9
2016-06-25T11:46:47.616Z,59.97
2016-06-25T11:47:48.260Z,59.55
2016-06-25T11:48:48.252Z,57.15
2016-06-25T11:49:48.241Z,57.04
2016-06-25T11:50:47.600Z,55.49
2016-06-25T11:51:48.239Z,54.61
2016-06-25T11:52:48.230Z,54.47
2016-06-25T11:53:48.224Z,54.22
2016-06-25T11:54:48.214Z,54.64
2016-06-25T11:55:48.225Z,54.61
2016-06-25T11:56:47.583Z,53.47
2016-06-25T11:57:48.202Z,54.74
2016-06-25T11:58:48.202Z,54.32
2016-06-25T11:59:48.193Z,51.89
2016-06-25T12:00:47.555Z,50.51
2016-06-25T12:01:48.190Z,51.39
2016-06-25T12:02:48.181Z,50.7
2016-06-25T12:03:48.180Z,50.41
2016-06-25T12:04:48.175Z,51.48
2016-06-25T12:05:48.184Z,50.31
2016-06-25T12:06:48.191Z,51.21
2016-06-25T12:07:47.527Z,52.55
2016-06-25T12:08:48.166Z,52.04
2016-06-25T12:09:48.315Z,50.02
2016-06-25T12:10:48.162Z,49.61
2016-06-25T12:11:47.522Z,49.88
2016-06-25T12:12:47.513Z,49.95
2016-06-25T12:13:48.146Z,48.97
2016-06-25T12:14:48.140Z,49.32
2016-06-25T12:15:48.147Z,50.07
2016-06-25T12:16:47.513Z,50.36
2016-06-25T12:17:47.518Z,49.37
2016-06-25T12:18:48.147Z,49.29
2016-06-25T12:19:48.130Z,49.46
2016-06-25T12:20:48.146Z,48.05
2016-06-25T12:21:48.135Z,47.78
2016-06-25T12:22:47.492Z,49.61
2016-06-25T12:23:47.503Z,48.58
2016-06-25T12:24:48.128Z,49.41
2016-06-25T12:25:48.140Z,50.02
2016-06-25T12:26:47.488Z,51.48
2016-06-25T12:27:48.126Z,52.21
2016-06-25T12:28:48.120Z,51.75
2016-06-25T12:29:48.113Z,52.98
2016-06-25T12:30:48.117Z,53.16
2016-06-25T12:31:48.114Z,52.76
2016-06-25T12:32:48.107Z,49.97
2016-06-25T12:33:47.474Z,48.97
2016-06-25T12:34:48.105Z,50.04
2016-06-25T12:35:48.104Z,49.95
2016-06-25T12:36:48.106Z,49.27
2016-06-25T12:37:48.099Z,48.41
2016-06-25T12:38:48.094Z,48.41
2016-06-25T12:39:48.099Z,47.92
2016-06-25T12:40:48.098Z,46.86
2016-06-25T12:41:48.087Z,48.36
2016-06-25T12:42:48.092Z,48.19
2016-06-25T12:43:47.443Z,47.63
2016-06-25T12:44:48.080Z,46.97
2016-06-25T12:45:48.088Z,46.88
2016-06-25T12:46:48.076Z,46.88
2016-06-25T12:47:48.079Z,47.46
2016-06-25T12:48:48.083Z,47.17
2016-06-25T12:49:48.083Z,46.86
2016-06-25T12:50:48.067Z,46.31
2016-06-25T12:51:48.069Z,47.97
2016-06-25T12:52:48.082Z,49.68
2016-06-25T12:53:48.066Z,51.55
2016-06-25T12:54:47.420Z,51.14
2016-06-25T12:55:48.064Z,50.29
2016-06-25T12:56:47.413Z,50.19